KRNT - Renton
Updated: Sun, 08-Dec-2019 1:53pm PST

 Wind from NNW
Wind: NNW 6 mph , 9 km/h
Temperature: 50°F , 10°C
Wind Chill: 48°F , 9°C
Dew Point: 45°F , 7°C
Humidity: 82%
Barometer: 30.12 inHg , 1020 hPa
Visibility: 10 miles , 16 km
Cloud details: 2400 ft
4700 ft
5500 ft
2019/12/08 21:53 KRNT 082153Z 33005KT 10SM SCT024 BKN047 OVC055 10/07 A3012 RMK AO2 SLP203 T01000072
KBFI - Seattle-Boeing
Updated: Sun, 08-Dec-2019 1:53pm PST

 Wind from NW
Wind: NW 3 mph , 6 km/h
Temperature: 52°F , 11°C
Dew Point: 45°F , 7°C
Humidity: 77%
Barometer: 30.12 inHg , 1020 hPa
Visibility: 10 miles , 16 km
Cloud details: 800 ft
2700 ft
2019/12/08 21:53 KBFI 082153Z 31003KT 10SM SCT008 BKN027 11/07 A3012 RMK AO2 SLP199 T01060072
 
KSEA - Seattle
Updated: Sun, 08-Dec-2019 2:03pm PST

 Wind from N
Wind: N 6 mph , 9 km/h
Temperature: 52°F , 11°C
Dew Point: 46°F , 8°C
Humidity: 82%
Barometer: 30.12 inHg , 1020 hPa
Visibility: 10 miles , 16 km
Cloud details: 1000 ft
3900 ft
5500 ft
2019/12/08 22:03 KSEA 082203Z 35005KT 10SM SCT010 BKN039 OVC055 11/08 A3012 RMK AO2 T01060078 $
KSMP - Stampede Pass
Updated: Sun, 08-Dec-2019 2:15pm PST
Mist, Overcast
Mist, Overcast
 Wind from varies
Wind: varies 6 mph , 9 km/h
Temperature: 36°F , 2°C
Wind Chill: 31°F , -1°C
Dew Point: 34°F , 1°C
Humidity: 93%
Barometer: 30.04 inHg , 1017.3 hPa
Visibility: 1 1/2 miles , 2.4 km
Cloud details: 300 ft
900 ft
1900 ft
2019/12/08 22:15 KSMP 082215Z AUTO VRB05KT 1 1/2SM BR BKN003 BKN009 OVC019 02/01 A3004 RMK AO2 T00220011